sensor_id;sensor_type;location;lat;lon;timestamp;pressure;altitude;pressure_sealevel;temperature;humidity
72414;BME280;60995;52.154;4.498;2023-10-09T00:02:03;104440.88;;;17.08;100.00
72414;BME280;60995;52.154;4.498;2023-10-09T00:04:22;104448.25;;;17.22;100.00
72414;BME280;60995;52.154;4.498;2023-10-09T00:06:39;104431.44;;;17.28;100.00
72414;BME280;60995;52.154;4.498;2023-10-09T00:08:59;104400.84;;;17.20;100.00
72414;BME280;60995;52.154;4.498;2023-10-09T00:11:27;104402.81;;;17.32;100.00
72414;BME280;60995;52.154;4.498;2023-10-09T00:13:47;104403.03;;;17.44;100.00
72414;BME280;60995;52.154;4.498;2023-10-09T00:16:13;104371.00;;;17.44;100.00
72414;BME280;60995;52.154;4.498;2023-10-09T00:18:30;104360.31;;;17.54;100.00
72414;BME280;60995;52.154;4.498;2023-10-09T00:20:49;104354.09;;;17.65;100.00
72414;BME280;60995;52.154;4.498;2023-10-09T00:23:11;104333.91;;;17.66;100.00
72414;BME280;60995;52.154;4.498;2023-10-09T00:25:31;104325.66;;;17.66;100.00
72414;BME280;60995;52.154;4.498;2023-10-09T00:27:52;104319.78;;;17.72;100.00
72414;BME280;60995;52.154;4.498;2023-10-09T00:32:30;104327.22;;;17.84;100.00
72414;BME280;60995;52.154;4.498;2023-10-09T00:34:49;104346.16;;;18.04;100.00
72414;BME280;60995;52.154;4.498;2023-10-09T00:37:09;104325.63;;;18.09;100.00
72414;BME280;60995;52.154;4.498;2023-10-09T00:39:32;104311.69;;;18.12;100.00
72414;BME280;60995;52.154;4.498;2023-10-09T00:41:54;104294.88;;;18.17;100.00
72414;BME280;60995;52.154;4.498;2023-10-09T00:44:10;104289.31;;;18.31;100.00
72414;BME280;60995;52.154;4.498;2023-10-09T00:46:27;104268.69;;;18.39;100.00
72414;BME280;60995;52.154;4.498;2023-10-09T00:48:45;104236.41;;;18.55;100.00
72414;BME280;60995;52.154;4.498;2023-10-09T00:51:04;104210.31;;;18.48;100.00
72414;BME280;60995;52.154;4.498;2023-10-09T00:53:34;104205.50;;;18.64;100.00
72414;BME280;60995;52.154;4.498;2023-10-09T00:55:50;104169.94;;;18.61;100.00
72414;BME280;60995;52.154;4.498;2023-10-09T00:58:12;104147.63;;;18.53;100.00
72414;BME280;60995;52.154;4.498;2023-10-09T01:00:30;104142.44;;;18.61;100.00
72414;BME280;60995;52.154;4.498;2023-10-09T01:03:02;104131.69;;;18.71;100.00
72414;BME280;60995;52.154;4.498;2023-10-09T01:05:51;104111.88;;;18.79;100.00
72414;BME280;60995;52.154;4.498;2023-10-09T01:08:15;104073.13;;;18.82;100.00
72414;BME280;60995;52.154;4.498;2023-10-09T01:10:47;104052.09;;;18.81;100.00
72414;BME280;60995;52.154;4.498;2023-10-09T01:13:07;104031.09;;;18.80;100.00
72414;BME280;60995;52.154;4.498;2023-10-09T01:15:25;104008.31;;;18.78;100.00
72414;BME280;60995;52.154;4.498;2023-10-09T01:18:00;103984.44;;;18.78;100.00
72414;BME280;60995;52.154;4.498;2023-10-09T01:20:22;103956.34;;;18.86;100.00
72414;BME280;60995;52.154;4.498;2023-10-09T01:22:46;103925.53;;;18.81;100.00
72414;BME280;60995;52.154;4.498;2023-10-09T01:25:03;103918.59;;;18.88;100.00
72414;BME280;60995;52.154;4.498;2023-10-09T01:27:22;103880.03;;;18.77;100.00
72414;BME280;60995;52.154;4.498;2023-10-09T01:29:42;103870.78;;;18.78;100.00
72414;BME280;60995;52.154;4.498;2023-10-09T01:32:00;103851.66;;;18.76;100.00
72414;BME280;60995;52.154;4.498;2023-10-09T01:34:19;103851.53;;;18.78;100.00
72414;BME280;60995;52.154;4.498;2023-10-09T01:36:40;103835.72;;;18.68;100.00
72414;BME280;60995;52.154;4.498;2023-10-09T01:39:01;103829.59;;;18.65;100.00
72414;BME280;60995;52.154;4.498;2023-10-09T01:41:47;103832.06;;;18.57;100.00
72414;BME280;60995;52.154;4.498;2023-10-09T01:44:05;103838.88;;;18.51;100.00
72414;BME280;60995;52.154;4.498;2023-10-09T01:46:26;103831.88;;;18.47;100.00
72414;BME280;60995;52.154;4.498;2023-10-09T01:48:42;103842.88;;;18.47;100.00
72414;BME280;60995;52.154;4.498;2023-10-09T01:51:02;103842.94;;;18.58;100.00
72414;BME280;60995;52.154;4.498;2023-10-09T01:53:21;103824.38;;;18.49;100.00
72414;BME280;60995;52.154;4.498;2023-10-09T01:55:41;103808.53;;;18.52;100.00
72414;BME280;60995;52.154;4.498;2023-10-09T01:58:05;103792.91;;;18.53;100.00
72414;BME280;60995;52.154;4.498;2023-10-09T02:00:25;103768.94;;;18.55;100.00
72414;BME280;60995;52.154;4.498;2023-10-09T02:02:45;103737.00;;;18.41;100.00
72414;BME280;60995;52.154;4.498;2023-10-09T02:05:03;103731.44;;;18.54;100.00
72414;BME280;60995;52.154;4.498;2023-10-09T02:07:30;103726.72;;;18.67;100.00
72414;BME280;60995;52.154;4.498;2023-10-09T02:09:56;103698.59;;;18.75;100.00
72414;BME280;60995;52.154;4.498;2023-10-09T02:12:12;103675.97;;;18.72;100.00
72414;BME280;60995;52.154;4.498;2023-10-09T02:14:29;103671.09;;;18.75;100.00
72414;BME280;60995;52.154;4.498;2023-10-09T02:16:48;103659.97;;;18.77;100.00
72414;BME280;60995;52.154;4.498;2023-10-09T02:19:23;103657.47;;;18.85;100.00
72414;BME280;60995;52.154;4.498;2023-10-09T02:22:06;103637.84;;;18.78;100.00
72414;BME280;60995;52.154;4.498;2023-10-09T02:24:31;103646.69;;;18.71;100.00
72414;BME280;60995;52.154;4.498;2023-10-09T02:27:06;103646.00;;;18.80;100.00
72414;BME280;60995;52.154;4.498;2023-10-09T02:29:22;103629.34;;;18.70;100.00
72414;BME280;60995;52.154;4.498;2023-10-09T02:31:40;103652.97;;;18.73;100.00
72414;BME280;60995;52.154;4.498;2023-10-09T02:34:00;103643.44;;;18.65;100.00
72414;BME280;60995;52.154;4.498;2023-10-09T02:36:23;103653.72;;;18.63;100.00
72414;BME280;60995;52.154;4.498;2023-10-09T02:38:40;103654.34;;;18.67;100.00
72414;BME280;60995;52.154;4.498;2023-10-09T02:40:58;103655.47;;;18.76;100.00
72414;BME280;60995;52.154;4.498;2023-10-09T02:43:20;103648.03;;;18.89;100.00
72414;BME280;60995;52.154;4.498;2023-10-09T02:45:37;103631.25;;;18.92;100.00
72414;BME280;60995;52.154;4.498;2023-10-09T02:48:03;103618.50;;;18.91;100.00
72414;BME280;60995;52.154;4.498;2023-10-09T02:50:26;103600.72;;;18.95;100.00
72414;BME280;60995;52.154;4.498;2023-10-09T02:52:45;103585.63;;;18.90;100.00
72414;BME280;60995;52.154;4.498;2023-10-09T02:55:03;103580.63;;;18.95;100.00
72414;BME280;60995;52.154;4.498;2023-10-09T02:57:28;103565.69;;;18.86;100.00
72414;BME280;60995;52.154;4.498;2023-10-09T02:59:52;103563.97;;;18.96;100.00
72414;BME280;60995;52.154;4.498;2023-10-09T03:02:08;103557.47;;;18.97;100.00
72414;BME280;60995;52.154;4.498;2023-10-09T03:04:24;103539.81;;;18.89;100.00
72414;BME280;60995;52.154;4.498;2023-10-09T03:06:45;103551.84;;;18.99;100.00
72414;BME280;60995;52.154;4.498;2023-10-09T03:09:06;103523.69;;;18.95;100.00
72414;BME280;60995;52.154;4.498;2023-10-09T03:11:32;103523.81;;;19.05;100.00
72414;BME280;60995;52.154;4.498;2023-10-09T03:13:48;103511.06;;;19.04;100.00
72414;BME280;60995;52.154;4.498;2023-10-09T03:16:05;103494.19;;;18.97;100.00
72414;BME280;60995;52.154;4.498;2023-10-09T03:18:21;103495.69;;;19.01;100.00
72414;BME280;60995;52.154;4.498;2023-10-09T03:20:37;103495.81;;;19.00;100.00
72414;BME280;60995;52.154;4.498;2023-10-09T03:22:53;103517.47;;;19.05;100.00
72414;BME280;60995;52.154;4.498;2023-10-09T03:25:10;103522.97;;;18.93;100.00
72414;BME280;60995;52.154;4.498;2023-10-09T03:27:32;103543.97;;;18.94;100.00
72414;BME280;60995;52.154;4.498;2023-10-09T03:29:50;103555.00;;;18.94;100.00
72414;BME280;60995;52.154;4.498;2023-10-09T03:32:09;103544.22;;;19.03;100.00
72414;BME280;60995;52.154;4.498;2023-10-09T03:34:27;103540.47;;;19.04;100.00
72414;BME280;60995;52.154;4.498;2023-10-09T03:36:45;103523.59;;;18.97;100.00
72414;BME280;60995;52.154;4.498;2023-10-09T03:39:04;103540.19;;;19.07;100.00
72414;BME280;60995;52.154;4.498;2023-10-09T03:41:33;103535.44;;;19.09;100.00
72414;BME280;60995;52.154;4.498;2023-10-09T03:43:57;103528.84;;;19.00;100.00
72414;BME280;60995;52.154;4.498;2023-10-09T03:46:14;103521.44;;;19.00;100.00
72414;BME280;60995;52.154;4.498;2023-10-09T03:48:36;103534.22;;;18.90;100.00
72414;BME280;60995;52.154;4.498;2023-10-09T03:50:53;103553.69;;;19.10;100.00
72414;BME280;60995;52.154;4.498;2023-10-09T03:53:25;103546.97;;;19.03;100.00
72414;BME280;60995;52.154;4.498;2023-10-09T03:55:41;103553.31;;;19.03;100.00
72414;BME280;60995;52.154;4.498;2023-10-09T03:57:58;103530.72;;;18.99;100.00
72414;BME280;60995;52.154;4.498;2023-10-09T04:00:15;103532.72;;;18.97;100.00
72414;BME280;60995;52.154;4.498;2023-10-09T04:02:33;103533.72;;;18.96;100.00
72414;BME280;60995;52.154;4.498;2023-10-09T04:04:49;103535.59;;;18.96;100.00
72414;BME280;60995;52.154;4.498;2023-10-09T04:07:06;103540.22;;;18.95;100.00
72414;BME280;60995;52.154;4.498;2023-10-09T04:09:23;103532.28;;;19.13;100.00
72414;BME280;60995;52.154;4.498;2023-10-09T04:11:39;103516.91;;;19.11;100.00
72414;BME280;60995;52.154;4.498;2023-10-09T04:13:59;103491.25;;;19.22;100.00
72414;BME280;60995;52.154;4.498;2023-10-09T04:16:15;103474.25;;;19.16;100.00
72414;BME280;60995;52.154;4.498;2023-10-09T04:18:46;103459.75;;;19.14;100.00
72414;BME280;60995;52.154;4.498;2023-10-09T04:21:03;103465.53;;;19.11;100.00
72414;BME280;60995;52.154;4.498;2023-10-09T04:23:46;103468.75;;;19.16;100.00
72414;BME280;60995;52.154;4.498;2023-10-09T04:26:26;103479.53;;;19.08;100.00
72414;BME280;60995;52.154;4.498;2023-10-09T04:28:42;103481.63;;;19.16;100.00
72414;BME280;60995;52.154;4.498;2023-10-09T04:30:58;103482.25;;;19.20;100.00
72414;BME280;60995;52.154;4.498;2023-10-09T04:33:19;103480.50;;;19.18;100.00
72414;BME280;60995;52.154;4.498;2023-10-09T04:36:02;103453.13;;;19.06;100.00
72414;BME280;60995;52.154;4.498;2023-10-09T04:38:35;103456.44;;;18.99;100.00
72414;BME280;60995;52.154;4.498;2023-10-09T04:40:53;103470.19;;;18.99;100.00
72414;BME280;60995;52.154;4.498;2023-10-09T04:43:15;103479.66;;;19.07;100.00
72414;BME280;60995;52.154;4.498;2023-10-09T04:45:36;103477.66;;;19.09;100.00
72414;BME280;60995;52.154;4.498;2023-10-09T04:48:11;103471.41;;;19.07;100.00
72414;BME280;60995;52.154;4.498;2023-10-09T04:50:27;103465.63;;;19.10;100.00
72414;BME280;60995;52.154;4.498;2023-10-09T04:52:46;103453.63;;;19.11;100.00
72414;BME280;60995;52.154;4.498;2023-10-09T04:55:06;103462.22;;;19.17;100.00
72414;BME280;60995;52.154;4.498;2023-10-09T04:57:26;103466.38;;;19.12;100.00
72414;BME280;60995;52.154;4.498;2023-10-09T04:59:43;103478.38;;;19.11;100.00
72414;BME280;60995;52.154;4.498;2023-10-09T05:02:04;103480.06;;;19.02;100.00
72414;BME280;60995;52.154;4.498;2023-10-09T05:04:23;103493.16;;;19.10;100.00
72414;BME280;60995;52.154;4.498;2023-10-09T05:06:57;103496.38;;;19.15;100.00
72414;BME280;60995;52.154;4.498;2023-10-09T05:09:13;103475.16;;;19.06;100.00
72414;BME280;60995;52.154;4.498;2023-10-09T05:11:30;103488.91;;;19.06;100.00
72414;BME280;60995;52.154;4.498;2023-10-09T05:14:13;103516.91;;;19.11;100.00
72414;BME280;60995;52.154;4.498;2023-10-09T05:16:29;103524.19;;;19.12;100.00
72414;BME280;60995;52.154;4.498;2023-10-09T05:18:46;103534.91;;;19.15;100.00
72414;BME280;60995;52.154;4.498;2023-10-09T05:21:11;103554.22;;;19.04;100.00
72414;BME280;60995;52.154;4.498;2023-10-09T05:23:28;103559.19;;;19.10;100.00
72414;BME280;60995;52.154;4.498;2023-10-09T05:25:45;103558.19;;;19.11;100.00
72414;BME280;60995;52.154;4.498;2023-10-09T05:28:09;103542.19;;;19.16;100.00
72414;BME280;60995;52.154;4.498;2023-10-09T05:30:52;103540.41;;;19.15;100.00
72414;BME280;60995;52.154;4.498;2023-10-09T05:33:22;103515.41;;;19.18;100.00
72414;BME280;60995;52.154;4.498;2023-10-09T05:35:44;103508.50;;;19.24;100.00
72414;BME280;60995;52.154;4.498;2023-10-09T05:38:20;103513.38;;;19.20;100.00
72414;BME280;60995;52.154;4.498;2023-10-09T05:40:39;103493.25;;;19.20;100.00
72414;BME280;60995;52.154;4.498;2023-10-09T05:42:59;103483.50;;;19.27;100.00
72414;BME280;60995;52.154;4.498;2023-10-09T05:45:16;103470.78;;;19.36;100.00
72414;BME280;60995;52.154;4.498;2023-10-09T05:47:33;103457.44;;;19.31;100.00
72414;BME280;60995;52.154;4.498;2023-10-09T05:49:49;103456.06;;;19.25;100.00
72414;BME280;60995;52.154;4.498;2023-10-09T05:52:37;103435.59;;;19.18;100.00
72414;BME280;60995;52.154;4.498;2023-10-09T05:54:53;103440.59;;;19.24;100.00
72414;BME280;60995;52.154;4.498;2023-10-09T05:57:30;103437.06;;;19.22;100.00
72414;BME280;60995;52.154;4.498;2023-10-09T06:00:26;103421.41;;;19.23;100.00
72414;BME280;60995;52.154;4.498;2023-10-09T06:03:01;103407.28;;;19.27;100.00
72414;BME280;60995;52.154;4.498;2023-10-09T06:05:36;103357.06;;;19.14;100.00
72414;BME280;60995;52.154;4.498;2023-10-09T06:08:06;103410.00;;;19.06;100.00
72414;BME280;60995;52.154;4.498;2023-10-09T06:10:23;103472.88;;;19.11;100.00
72414;BME280;60995;52.154;4.498;2023-10-09T06:12:54;103440.00;;;19.09;100.00
72414;BME280;60995;52.154;4.498;2023-10-09T06:15:19;103450.00;;;19.10;100.00
72414;BME280;60995;52.154;4.498;2023-10-09T06:17:47;103461.88;;;19.11;100.00
72414;BME280;60995;52.154;4.498;2023-10-09T06:20:07;103461.53;;;19.04;100.00
72414;BME280;60995;52.154;4.498;2023-10-09T06:22:43;103492.94;;;19.01;100.00
72414;BME280;60995;52.154;4.498;2023-10-09T06:25:12;103512.03;;;19.14;100.00
72414;BME280;60995;52.154;4.498;2023-10-09T06:27:35;103510.16;;;19.15;100.00
72414;BME280;60995;52.154;4.498;2023-10-09T06:29:51;103501.53;;;19.08;100.00
72414;BME280;60995;52.154;4.498;2023-10-09T06:32:26;103502.38;;;19.20;100.00
72414;BME280;60995;52.154;4.498;2023-10-09T06:34:57;103514.41;;;19.19;100.00
72414;BME280;60995;52.154;4.498;2023-10-09T06:37:32;103523.38;;;19.32;100.00
72414;BME280;60995;52.154;4.498;2023-10-09T06:39:52;103512.59;;;19.29;100.00
72414;BME280;60995;52.154;4.498;2023-10-09T06:42:12;103514.22;;;19.32;100.00
72414;BME280;60995;52.154;4.498;2023-10-09T06:44:47;103502.34;;;19.31;100.00
72414;BME280;60995;52.154;4.498;2023-10-09T06:47:13;103499.56;;;19.43;100.00
72414;BME280;60995;52.154;4.498;2023-10-09T06:49:29;103471.56;;;19.38;100.00
72414;BME280;60995;52.154;4.498;2023-10-09T06:51:45;103464.78;;;19.42;100.00
72414;BME280;60995;52.154;4.498;2023-10-09T06:54:03;103487.47;;;19.55;100.00
72414;BME280;60995;52.154;4.498;2023-10-09T06:56:26;103453.47;;;19.45;100.00
72414;BME280;60995;52.154;4.498;2023-10-09T06:58:45;103438.84;;;19.65;100.00
72414;BME280;60995;52.154;4.498;2023-10-09T07:01:03;103415.53;;;19.70;100.00
72414;BME280;60995;52.154;4.498;2023-10-09T07:03:38;103372.59;;;19.67;100.00
72414;BME280;60995;52.154;4.498;2023-10-09T07:06:11;103346.97;;;19.66;100.00
72414;BME280;60995;52.154;4.498;2023-10-09T07:08:39;103344.38;;;19.75;100.00
72414;BME280;60995;52.154;4.498;2023-10-09T07:11:13;103335.47;;;19.61;100.00
72414;BME280;60995;52.154;4.498;2023-10-09T07:13:48;103362.28;;;19.59;100.00
72414;BME280;60995;52.154;4.498;2023-10-09T07:16:11;103358.97;;;19.65;100.00
72414;BME280;60995;52.154;4.498;2023-10-09T07:18:39;103383.97;;;19.74;100.00
72414;BME280;60995;52.154;4.498;2023-10-09T07:21:05;103420.13;;;20.02;100.00
72414;BME280;60995;52.154;4.498;2023-10-09T07:23:27;103401.47;;;20.15;100.00
72414;BME280;60995;52.154;4.498;2023-10-09T07:25:48;103363.78;;;20.25;100.00
72414;BME280;60995;52.154;4.498;2023-10-09T07:28:11;103334.50;;;20.44;100.00
72414;BME280;60995;52.154;4.498;2023-10-09T07:30:52;103280.22;;;20.35;100.00
72414;BME280;60995;52.154;4.498;2023-10-09T07:33:13;103253.53;;;20.45;100.00
72414;BME280;60995;52.154;4.498;2023-10-09T07:35:32;103180.94;;;20.15;100.00
72414;BME280;60995;52.154;4.498;2023-10-09T07:38:00;103215.34;;;20.11;100.00
72414;BME280;60995;52.154;4.498;2023-10-09T07:40:18;103226.50;;;20.09;100.00
72414;BME280;60995;52.154;4.498;2023-10-09T07:42:34;103246.56;;;20.41;100.00
72414;BME280;60995;52.154;4.498;2023-10-09T07:44:56;103158.00;;;20.63;100.00
72414;BME280;60995;52.154;4.498;2023-10-09T07:47:13;103094.75;;;20.52;100.00
72414;BME280;60995;52.154;4.498;2023-10-09T07:49:55;103096.47;;;20.53;100.00
72414;BME280;60995;52.154;4.498;2023-10-09T07:52:15;103091.25;;;20.50;100.00
72414;BME280;60995;52.154;4.498;2023-10-09T07:54:32;103096.19;;;20.46;100.00
72414;BME280;60995;52.154;4.498;2023-10-09T07:56:49;103106.31;;;20.65;100.00
72414;BME280;60995;52.154;4.498;2023-10-09T07:59:09;103105.00;;;20.79;100.00
72414;BME280;60995;52.154;4.498;2023-10-09T08:01:29;103093.47;;;20.94;100.00
72414;BME280;60995;52.154;4.498;2023-10-09T08:03:51;103067.66;;;20.85;100.00
72414;BME280;60995;52.154;4.498;2023-10-09T08:06:13;103043.06;;;21.20;100.00
72414;BME280;60995;52.154;4.498;2023-10-09T08:08:48;102992.75;;;21.26;100.00
72414;BME280;60995;52.154;4.498;2023-10-09T08:11:19;102946.31;;;21.57;100.00
72414;BME280;60995;52.154;4.498;2023-10-09T08:13:55;102895.00;;;21.73;100.00
72414;BME280;60995;52.154;4.498;2023-10-09T08:16:11;102826.06;;;21.97;100.00
72414;BME280;60995;52.154;4.498;2023-10-09T08:18:36;102771.22;;;21.76;100.00
72414;BME280;60995;52.154;4.498;2023-10-09T08:21:02;102756.59;;;21.92;100.00
72414;BME280;60995;52.154;4.498;2023-10-09T08:23:18;102721.88;;;22.66;100.00
72414;BME280;60995;52.154;4.498;2023-10-09T08:25:49;102644.50;;;23.30;100.00
72414;BME280;60995;52.154;4.498;2023-10-09T08:28:26;102588.84;;;23.79;100.00
72414;BME280;60995;52.154;4.498;2023-10-09T08:30:55;102516.97;;;24.01;100.00
72414;BME280;60995;52.154;4.498;2023-10-09T08:33:11;102531.88;;;24.38;100.00
72414;BME280;60995;52.154;4.498;2023-10-09T08:35:48;102565.44;;;23.82;100.00
72414;BME280;60995;52.154;4.498;2023-10-09T08:38:07;102557.44;;;23.87;100.00
72414;BME280;60995;52.154;4.498;2023-10-09T08:40:30;102563.44;;;23.68;100.00
72414;BME280;60995;52.154;4.498;2023-10-09T08:42:56;102570.00;;;24.21;100.00
72414;BME280;60995;52.154;4.498;2023-10-09T08:45:24;102576.44;;;23.67;100.00
72414;BME280;60995;52.154;4.498;2023-10-09T08:47:43;102563.63;;;23.35;100.00
72414;BME280;60995;52.154;4.498;2023-10-09T08:50:07;102567.72;;;23.47;100.00
72414;BME280;60995;52.154;4.498;2023-10-09T08:52:29;102579.34;;;23.42;100.00
72414;BME280;60995;52.154;4.498;2023-10-09T08:54:45;102576.69;;;23.49;100.00
72414;BME280;60995;52.154;4.498;2023-10-09T08:57:01;102581.31;;;23.88;100.00
72414;BME280;60995;52.154;4.498;2023-10-09T08:59:18;102546.00;;;24.28;100.00
72414;BME280;60995;52.154;4.498;2023-10-09T09:01:35;102548.16;;;23.49;100.00
72414;BME280;60995;52.154;4.498;2023-10-09T09:03:53;102549.75;;;23.66;100.00
72414;BME280;60995;52.154;4.498;2023-10-09T09:06:13;102586.34;;;23.22;100.00
72414;BME280;60995;52.154;4.498;2023-10-09T09:08:32;102605.25;;;23.18;100.00
72414;BME280;60995;52.154;4.498;2023-10-09T09:13:22;102572.38;;;23.46;100.00
72414;BME280;60995;52.154;4.498;2023-10-09T09:15:38;102550.59;;;23.98;100.00
72414;BME280;60995;52.154;4.498;2023-10-09T09:18:06;102519.38;;;24.04;100.00
72414;BME280;60995;52.154;4.498;2023-10-09T09:20:27;102534.06;;;23.90;100.00
72414;BME280;60995;52.154;4.498;2023-10-09T09:22:55;102502.44;;;24.52;100.00
72414;BME280;60995;52.154;4.498;2023-10-09T09:25:15;102450.03;;;25.24;100.00
72414;BME280;60995;52.154;4.498;2023-10-09T09:27:47;102402.38;;;25.27;100.00
72414;BME280;60995;52.154;4.498;2023-10-09T09:30:22;102383.03;;;25.55;100.00
72414;BME280;60995;52.154;4.498;2023-10-09T09:32:49;102397.69;;;25.27;100.00
72414;BME280;60995;52.154;4.498;2023-10-09T09:35:25;102390.81;;;25.23;100.00
72414;BME280;60995;52.154;4.498;2023-10-09T09:37:52;102418.63;;;24.12;100.00
72414;BME280;60995;52.154;4.498;2023-10-09T09:40:11;102447.97;;;24.21;100.00
72414;BME280;60995;52.154;4.498;2023-10-09T09:42:48;102436.88;;;24.21;100.00
72414;BME280;60995;52.154;4.498;2023-10-09T09:45:06;102424.53;;;24.39;100.00
72414;BME280;60995;52.154;4.498;2023-10-09T09:47:27;102428.66;;;24.28;100.00
72414;BME280;60995;52.154;4.498;2023-10-09T09:49:44;102414.31;;;24.54;100.00
72414;BME280;60995;52.154;4.498;2023-10-09T09:52:01;102386.63;;;24.61;100.00
72414;BME280;60995;52.154;4.498;2023-10-09T09:54:26;102400.81;;;24.66;100.00
72414;BME280;60995;52.154;4.498;2023-10-09T09:56:44;102366.06;;;24.85;100.00
72414;BME280;60995;52.154;4.498;2023-10-09T09:59:08;102357.78;;;24.10;100.00
72414;BME280;60995;52.154;4.498;2023-10-09T10:01:33;102430.47;;;24.06;100.00
72414;BME280;60995;52.154;4.498;2023-10-09T10:04:07;102394.19;;;24.82;100.00
72414;BME280;60995;52.154;4.498;2023-10-09T10:06:31;102352.84;;;25.52;100.00
72414;BME280;60995;52.154;4.498;2023-10-09T10:08:50;102307.97;;;25.84;100.00
72414;BME280;60995;52.154;4.498;2023-10-09T10:11:07;102263.00;;;26.64;100.00
72414;BME280;60995;52.154;4.498;2023-10-09T10:15:59;102234.75;;;26.87;100.00
72414;BME280;60995;52.154;4.498;2023-10-09T10:18:30;102200.06;;;27.03;100.00
72414;BME280;60995;52.154;4.498;2023-10-09T10:21:09;102167.44;;;27.37;100.00
72414;BME280;60995;52.154;4.498;2023-10-09T10:23:32;102185.91;;;27.24;100.00
72414;BME280;60995;52.154;4.498;2023-10-09T10:25:50;102172.84;;;27.18;100.00
72414;BME280;60995;52.154;4.498;2023-10-09T10:28:16;102202.38;;;25.97;100.00
72414;BME280;60995;52.154;4.498;2023-10-09T10:30:58;102190.97;;;26.27;100.00
72414;BME280;60995;52.154;4.498;2023-10-09T10:33:16;102188.88;;;26.63;100.00
72414;BME280;60995;52.154;4.498;2023-10-09T10:35:32;102173.28;;;27.02;100.00
72414;BME280;60995;52.154;4.498;2023-10-09T10:37:55;102169.63;;;26.95;100.00
72414;BME280;60995;52.154;4.498;2023-10-09T10:40:37;102190.56;;;26.37;100.00
72414;BME280;60995;52.154;4.498;2023-10-09T10:43:02;102198.78;;;25.62;100.00
72414;BME280;60995;52.154;4.498;2023-10-09T10:45:42;102207.59;;;25.37;100.00
72414;BME280;60995;52.154;4.498;2023-10-09T10:48:02;102204.22;;;25.41;100.00
72414;BME280;60995;52.154;4.498;2023-10-09T10:50:25;102208.41;;;25.31;100.00
72414;BME280;60995;52.154;4.498;2023-10-09T10:52:47;102182.09;;;25.62;100.00
72414;BME280;60995;52.154;4.498;2023-10-09T10:55:14;102153.69;;;26.21;100.00
72414;BME280;60995;52.154;4.498;2023-10-09T10:57:53;102143.47;;;26.29;100.00
72414;BME280;60995;52.154;4.498;2023-10-09T11:00:16;102160.72;;;26.04;100.00
72414;BME280;60995;52.154;4.498;2023-10-09T11:02:51;102156.16;;;25.89;100.00
72414;BME280;60995;52.154;4.498;2023-10-09T11:05:08;102171.97;;;25.47;100.00
72414;BME280;60995;52.154;4.498;2023-10-09T11:07:30;102165.59;;;26.02;100.00
72414;BME280;60995;52.154;4.498;2023-10-09T11:09:50;102159.84;;;25.55;100.00
72414;BME280;60995;52.154;4.498;2023-10-09T11:12:21;102168.91;;;25.77;100.00
72414;BME280;60995;52.154;4.498;2023-10-09T11:14:48;102157.97;;;25.62;100.00
72414;BME280;60995;52.154;4.498;2023-10-09T11:17:25;102188.50;;;24.99;100.00
72414;BME280;60995;52.154;4.498;2023-10-09T11:19:41;102159.53;;;25.85;100.00
72414;BME280;60995;52.154;4.498;2023-10-09T11:22:00;102135.78;;;26.44;100.00
72414;BME280;60995;52.154;4.498;2023-10-09T11:24:26;102110.94;;;26.63;100.00
72414;BME280;60995;52.154;4.498;2023-10-09T11:26:49;102137.06;;;26.48;100.00
72414;BME280;60995;52.154;4.498;2023-10-09T11:29:13;102138.72;;;25.61;100.00
72414;BME280;60995;52.154;4.498;2023-10-09T11:31:32;102153.19;;;25.49;100.00
72414;BME280;60995;52.154;4.498;2023-10-09T11:33:51;102157.47;;;25.23;100.00
72414;BME280;60995;52.154;4.498;2023-10-09T11:36:09;102170.53;;;24.73;100.00
72414;BME280;60995;52.154;4.498;2023-10-09T11:38:35;102159.56;;;24.86;100.00
72414;BME280;60995;52.154;4.498;2023-10-09T11:40:52;102172.91;;;24.33;100.00
72414;BME280;60995;52.154;4.498;2023-10-09T11:43:08;102176.75;;;24.75;100.00
72414;BME280;60995;52.154;4.498;2023-10-09T11:45:32;102148.66;;;24.85;100.00
72414;BME280;60995;52.154;4.498;2023-10-09T11:47:54;102159.69;;;24.78;100.00
72414;BME280;60995;52.154;4.498;2023-10-09T11:50:14;102163.66;;;24.90;100.00
72414;BME280;60995;52.154;4.498;2023-10-09T11:52:33;102169.50;;;24.52;100.00
72414;BME280;60995;52.154;4.498;2023-10-09T11:54:53;102178.13;;;24.42;100.00
72414;BME280;60995;52.154;4.498;2023-10-09T11:57:12;102167.59;;;24.38;100.00
72414;BME280;60995;52.154;4.498;2023-10-09T11:59:29;102185.56;;;24.20;100.00
72414;BME280;60995;52.154;4.498;2023-10-09T12:01:55;102181.34;;;24.24;100.00
72414;BME280;60995;52.154;4.498;2023-10-09T12:04:16;102188.72;;;24.54;100.00
72414;BME280;60995;52.154;4.498;2023-10-09T12:06:33;102195.88;;;24.63;100.00
72414;BME280;60995;52.154;4.498;2023-10-09T12:08:51;102209.13;;;24.46;100.00
72414;BME280;60995;52.154;4.498;2023-10-09T12:11:09;102212.78;;;24.68;100.00
72414;BME280;60995;52.154;4.498;2023-10-09T12:13:27;102213.38;;;24.64;100.00
72414;BME280;60995;52.154;4.498;2023-10-09T12:15:43;102224.84;;;24.60;100.00
72414;BME280;60995;52.154;4.498;2023-10-09T12:18:04;102204.09;;;24.56;100.00
72414;BME280;60995;52.154;4.498;2023-10-09T12:20:24;102207.25;;;24.53;100.00
72414;BME280;60995;52.154;4.498;2023-10-09T12:22:47;102201.47;;;24.70;100.00
72414;BME280;60995;52.154;4.498;2023-10-09T12:25:04;102206.66;;;24.58;100.00
72414;BME280;60995;52.154;4.498;2023-10-09T12:27:25;102184.34;;;24.88;100.00